createdAt,value
2019-05-26T00:00:02.693Z,97.20
2019-05-26T00:02:39.029Z,97.20
2019-05-26T00:05:15.328Z,97.20
2019-05-26T00:07:51.762Z,97.20
2019-05-26T00:10:27.934Z,97.20
2019-05-26T00:13:04.182Z,97.20
2019-05-26T00:15:40.411Z,97.20
2019-05-26T00:18:16.664Z,97.20
2019-05-26T00:20:52.899Z,97.20
2019-05-26T00:23:29.542Z,97.20
2019-05-26T00:26:05.887Z,97.20
2019-05-26T00:28:42.120Z,97.20
2019-05-26T00:31:18.361Z,97.20
2019-05-26T00:33:54.641Z,97.20
2019-05-26T00:36:30.759Z,97.20
2019-05-26T00:39:07.301Z,97.20
2019-05-26T00:41:43.460Z,97.20
2019-05-26T00:44:19.601Z,97.20
2019-05-26T00:46:55.783Z,97.20
2019-05-26T00:49:31.959Z,97.20
2019-05-26T00:52:08.200Z,97.20
2019-05-26T00:54:44.409Z,97.20
2019-05-26T00:57:20.575Z,97.20
2019-05-26T00:59:56.795Z,97.20
2019-05-26T01:02:33.036Z,97.20
2019-05-26T01:05:09.828Z,97.20
2019-05-26T01:07:46.147Z,97.20
2019-05-26T01:10:22.356Z,97.20
2019-05-26T01:12:58.627Z,97.20
2019-05-26T01:15:34.831Z,97.20
2019-05-26T01:18:11.019Z,97.20
2019-05-26T01:20:47.301Z,97.20
2019-05-26T01:23:23.480Z,97.20
2019-05-26T01:25:59.738Z,97.20
2019-05-26T01:28:35.896Z,97.20
2019-05-26T01:31:12.143Z,97.20
2019-05-26T01:33:48.289Z,97.20
2019-05-26T01:36:24.737Z,97.20
2019-05-26T01:39:01.160Z,97.20
2019-05-26T01:41:37.416Z,97.20
2019-05-26T01:44:13.664Z,97.20
2019-05-26T01:46:49.884Z,97.20
2019-05-26T01:49:26.139Z,97.20
2019-05-26T01:52:02.483Z,97.20
2019-05-26T01:54:40.991Z,97.20
2019-05-26T01:57:16.523Z,97.20
2019-05-26T01:59:52.759Z,97.20
2019-05-26T02:02:28.897Z,97.20
2019-05-26T02:05:05.883Z,97.20
2019-05-26T02:07:42.044Z,97.20
2019-05-26T02:10:18.212Z,97.20
2019-05-26T02:12:54.434Z,97.20
2019-05-26T02:15:30.890Z,97.20
2019-05-26T02:18:07.405Z,97.20
2019-05-26T02:20:43.654Z,97.20
2019-05-26T02:23:19.878Z,97.20
2019-05-26T02:25:56.128Z,97.20
2019-05-26T02:28:32.346Z,97.20
2019-05-26T02:31:08.610Z,97.20
2019-05-26T02:33:44.822Z,97.20
2019-05-26T02:36:21.072Z,97.20
2019-05-26T02:39:02.752Z,97.20
2019-05-26T02:41:36.232Z,97.20
2019-05-26T02:44:12.438Z,97.20
2019-05-26T02:46:50.171Z,97.20
2019-05-26T02:49:26.371Z,97.20
2019-05-26T02:52:02.658Z,97.20
2019-05-26T02:54:38.801Z,97.20
2019-05-26T02:57:15.023Z,97.20
2019-05-26T02:59:51.258Z,97.20
2019-05-26T03:02:27.484Z,97.20
2019-05-26T03:05:04.816Z,97.20
2019-05-26T03:07:43.574Z,97.20
2019-05-26T03:10:19.880Z,97.20
2019-05-26T03:12:57.191Z,97.20
2019-05-26T03:15:35.014Z,97.20
2019-05-26T03:18:11.150Z,97.20
2019-05-26T03:20:47.396Z,97.20
2019-05-26T03:23:24.421Z,97.20
2019-05-26T03:26:00.785Z,97.20
2019-05-26T03:28:37.002Z,97.20
2019-05-26T03:31:13.273Z,97.20
2019-05-26T03:33:49.455Z,97.20
2019-05-26T03:36:25.719Z,97.20
2019-05-26T03:39:01.921Z,97.20
2019-05-26T03:41:38.195Z,97.20
2019-05-26T03:44:14.455Z,97.20
2019-05-26T03:46:50.637Z,97.20
2019-05-26T03:49:26.855Z,97.20
2019-05-26T03:52:03.106Z,97.20
2019-05-26T03:54:39.326Z,97.20
2019-05-26T03:57:15.641Z,97.20
2019-05-26T03:59:51.850Z,97.20
2019-05-26T04:02:28.095Z,97.20
2019-05-26T04:05:08.421Z,97.20
2019-05-26T04:07:44.672Z,97.20
2019-05-26T04:10:22.455Z,97.20
2019-05-26T04:12:58.633Z,97.20
2019-05-26T04:15:34.779Z,97.20
2019-05-26T04:18:11.001Z,97.20
2019-05-26T04:20:47.115Z,97.20
2019-05-26T04:23:23.331Z,97.20
2019-05-26T04:25:59.503Z,97.20
2019-05-26T04:28:35.677Z,97.20
2019-05-26T04:31:11.789Z,97.20
2019-05-26T04:33:47.987Z,97.20
2019-05-26T04:36:24.131Z,97.20
2019-05-26T04:39:02.002Z,97.20
2019-05-26T04:41:38.212Z,97.20
2019-05-26T04:44:14.398Z,97.20
2019-05-26T04:46:50.632Z,97.20
2019-05-26T04:49:26.869Z,97.20
2019-05-26T04:52:03.129Z,97.20
2019-05-26T04:54:39.373Z,97.20
2019-05-26T04:57:15.565Z,97.20
2019-05-26T04:59:51.786Z,97.20
2019-05-26T05:02:27.964Z,97.20
2019-05-26T05:05:07.093Z,97.20
2019-05-26T05:07:43.322Z,97.20
2019-05-26T05:10:19.469Z,97.20
2019-05-26T05:12:55.724Z,97.20
2019-05-26T05:15:31.874Z,97.20
2019-05-26T05:18:08.121Z,97.20
2019-05-26T05:20:44.396Z,96.80
2019-05-26T05:23:20.633Z,97.20
2019-05-26T05:25:56.843Z,97.20
2019-05-26T05:28:33.160Z,96.40
2019-05-26T05:31:09.908Z,95.10
2019-05-26T05:33:46.119Z,94.00
2019-05-26T05:36:22.222Z,93.20
2019-05-26T05:38:58.300Z,92.60
2019-05-26T05:41:34.606Z,91.90
2019-05-26T05:44:10.754Z,91.40
2019-05-26T05:46:47.000Z,89.50
2019-05-26T05:49:23.213Z,89.00
2019-05-26T05:51:59.458Z,88.30
2019-05-26T05:54:35.678Z,89.10
2019-05-26T05:57:11.848Z,86.80
2019-05-26T05:59:47.987Z,84.00
2019-05-26T06:02:24.231Z,85.80
2019-05-26T06:05:00.436Z,84.80
2019-05-26T06:07:36.677Z,84.20
2019-05-26T06:10:13.272Z,82.40
2019-05-26T06:12:49.445Z,82.60
2019-05-26T06:15:25.587Z,82.60
2019-05-26T06:18:01.769Z,82.10
2019-05-26T06:20:37.916Z,82.60
2019-05-26T06:23:14.103Z,80.90
2019-05-26T06:25:50.403Z,82.10
2019-05-26T06:28:26.697Z,78.30
2019-05-26T06:31:02.793Z,79.30
2019-05-26T06:33:38.944Z,80.40
2019-05-26T06:36:15.196Z,79.10
2019-05-26T06:38:51.366Z,79.80
2019-05-26T06:41:33.561Z,79.60
2019-05-26T06:44:05.455Z,78.80
2019-05-26T06:46:41.548Z,76.40
2019-05-26T06:49:17.709Z,78.40
2019-05-26T06:51:53.952Z,78.20
2019-05-26T06:54:30.087Z,78.30
2019-05-26T06:57:06.330Z,77.90
2019-05-26T06:59:42.471Z,76.10
2019-05-26T07:02:18.652Z,77.80
2019-05-26T07:04:54.861Z,75.60
2019-05-26T07:07:31.119Z,76.10
2019-05-26T07:10:08.103Z,74.20
2019-05-26T07:12:44.359Z,73.90
2019-05-26T07:15:20.707Z,74.00
2019-05-26T07:17:57.237Z,74.30
2019-05-26T07:20:33.456Z,75.00
2019-05-26T07:23:10.394Z,73.50
2019-05-26T07:25:46.755Z,73.80
2019-05-26T07:28:23.015Z,72.70
2019-05-26T07:30:59.230Z,71.60
2019-05-26T07:33:35.496Z,72.70
2019-05-26T07:36:11.646Z,72.20
2019-05-26T07:38:47.912Z,72.50
2019-05-26T07:41:24.062Z,72.10
2019-05-26T07:44:00.354Z,72.70
2019-05-26T07:46:36.568Z,72.70
2019-05-26T07:49:12.835Z,71.90
2019-05-26T07:51:49.066Z,70.20
2019-05-26T07:54:26.137Z,70.80
2019-05-26T07:57:02.535Z,70.00
2019-05-26T07:59:38.724Z,71.20
2019-05-26T08:02:14.974Z,69.90
2019-05-26T08:04:51.117Z,70.00
2019-05-26T08:07:27.373Z,70.90
2019-05-26T08:10:05.321Z,69.40
2019-05-26T08:12:41.643Z,70.90
2019-05-26T08:15:17.812Z,69.70
2019-05-26T08:17:54.061Z,69.20
2019-05-26T08:20:30.303Z,69.80
2019-05-26T08:23:06.564Z,72.40
2019-05-26T08:25:42.905Z,70.50
2019-05-26T08:28:19.275Z,70.70
2019-05-26T08:30:55.427Z,71.60
2019-05-26T08:33:31.691Z,72.60
2019-05-26T08:36:07.879Z,71.00
2019-05-26T08:38:44.124Z,72.10
2019-05-26T08:41:20.208Z,73.00
2019-05-26T08:43:56.546Z,72.40
2019-05-26T08:46:32.804Z,71.50
2019-05-26T08:49:09.068Z,71.70
2019-05-26T08:51:45.292Z,70.90
2019-05-26T08:54:21.554Z,71.90
2019-05-26T08:56:57.716Z,71.20
2019-05-26T08:59:33.957Z,70.80
2019-05-26T09:02:10.099Z,68.90
2019-05-26T09:04:46.362Z,70.20
2019-05-26T09:07:22.580Z,69.00
2019-05-26T09:09:58.853Z,69.70
2019-05-26T09:12:35.080Z,66.60
2019-05-26T09:15:11.451Z,67.50
2019-05-26T09:17:47.687Z,67.80
2019-05-26T09:20:24.639Z,66.70
2019-05-26T09:23:00.861Z,67.50
2019-05-26T09:25:37.133Z,69.20
2019-05-26T09:28:13.390Z,69.30
2019-05-26T09:30:49.617Z,68.10
2019-05-26T09:33:25.865Z,69.30
2019-05-26T09:36:02.071Z,68.30
2019-05-26T09:38:38.357Z,67.50
2019-05-26T09:41:14.601Z,67.70
2019-05-26T09:43:50.826Z,65.80
2019-05-26T09:46:27.165Z,67.20
2019-05-26T09:49:03.485Z,67.30
2019-05-26T09:51:39.743Z,64.70
2019-05-26T09:54:16.030Z,64.30
2019-05-26T09:56:54.981Z,64.90
2019-05-26T09:59:31.236Z,64.80
2019-05-26T10:02:07.459Z,65.50
2019-05-26T10:04:43.725Z,65.10
2019-05-26T10:07:19.947Z,65.60
2019-05-26T10:09:56.137Z,64.90
2019-05-26T10:12:32.351Z,66.10
2019-05-26T10:15:09.516Z,67.30
2019-05-26T10:17:45.664Z,64.80
2019-05-26T10:20:22.039Z,63.30
2019-05-26T10:22:58.186Z,63.70
2019-05-26T10:25:34.432Z,64.10
2019-05-26T10:28:10.576Z,62.80
2019-05-26T10:30:46.810Z,63.80
2019-05-26T10:33:23.106Z,63.40
2019-05-26T10:35:59.444Z,63.50
2019-05-26T10:38:35.660Z,64.00
2019-05-26T10:41:11.905Z,63.60
2019-05-26T10:43:48.130Z,65.00
2019-05-26T10:46:24.491Z,64.20
2019-05-26T10:49:00.794Z,62.20
2019-05-26T10:51:37.112Z,63.70
2019-05-26T10:54:13.383Z,64.40
2019-05-26T10:56:49.593Z,63.00
2019-05-26T10:59:25.781Z,63.30
2019-05-26T11:02:02.204Z,61.90
2019-05-26T11:04:38.452Z,63.70
2019-05-26T11:07:14.596Z,63.90
2019-05-26T11:09:50.894Z,65.50
2019-05-26T11:12:27.157Z,64.50
2019-05-26T11:15:04.148Z,65.20
2019-05-26T11:17:40.360Z,64.60
2019-05-26T11:20:16.929Z,65.30
2019-05-26T11:22:53.148Z,65.50
2019-05-26T11:25:29.466Z,64.20
2019-05-26T11:28:05.686Z,62.70
2019-05-26T11:30:41.956Z,62.10
2019-05-26T11:33:18.138Z,64.50
2019-05-26T11:35:54.393Z,65.60
2019-05-26T11:38:33.430Z,64.30
2019-05-26T11:41:08.490Z,62.80
2019-05-26T11:43:44.750Z,62.70
2019-05-26T11:46:20.887Z,61.30
2019-05-26T11:48:57.154Z,61.40
2019-05-26T11:51:33.452Z,61.00
2019-05-26T11:54:09.643Z,59.30
2019-05-26T11:56:45.892Z,60.30
2019-05-26T11:59:22.172Z,62.00
2019-05-26T12:01:58.381Z,59.80
2019-05-26T12:04:34.564Z,59.60
2019-05-26T12:07:13.899Z,58.00
2019-05-26T12:09:50.038Z,60.00
2019-05-26T12:12:26.356Z,59.10
2019-05-26T12:15:02.581Z,57.00
2019-05-26T12:17:38.846Z,56.80
2019-05-26T12:20:15.015Z,58.90
2019-05-26T12:22:51.220Z,58.50
2019-05-26T12:25:27.438Z,60.00
2019-05-26T12:28:03.695Z,59.50
2019-05-26T12:30:39.974Z,58.60
2019-05-26T12:33:16.188Z,58.90
2019-05-26T12:35:52.335Z,58.10
2019-05-26T12:38:28.568Z,58.30
2019-05-26T12:41:04.782Z,59.20
2019-05-26T12:43:40.965Z,57.80
2019-05-26T12:46:17.214Z,57.90
2019-05-26T12:48:53.520Z,57.50
2019-05-26T12:51:29.698Z,59.50
2019-05-26T12:54:06.429Z,61.80
2019-05-26T12:56:42.666Z,61.50
2019-05-26T12:59:18.920Z,62.30
2019-05-26T13:01:55.101Z,63.90
2019-05-26T13:04:31.320Z,63.30
2019-05-26T13:07:07.563Z,63.40
2019-05-26T13:09:43.768Z,62.70
2019-05-26T13:12:20.053Z,61.50
2019-05-26T13:15:05.494Z,63.90
2019-05-26T13:17:34.205Z,64.60
2019-05-26T13:20:11.429Z,65.80
2019-05-26T13:22:47.693Z,64.40
2019-05-26T13:25:23.917Z,63.40
2019-05-26T13:28:00.168Z,61.10
2019-05-26T13:30:36.478Z,60.90
2019-05-26T13:33:12.760Z,61.30
2019-05-26T13:35:48.952Z,60.00
2019-05-26T13:38:25.705Z,59.10
2019-05-26T13:41:01.905Z,60.40
2019-05-26T13:43:38.188Z,61.30
2019-05-26T13:46:14.419Z,62.30
2019-05-26T13:48:50.640Z,62.90
2019-05-26T13:51:26.834Z,62.50
2019-05-26T13:54:03.103Z,61.60
2019-05-26T13:56:40.779Z,63.30
2019-05-26T13:59:16.968Z,62.60
2019-05-26T14:01:53.224Z,63.50
2019-05-26T14:04:29.464Z,63.10
2019-05-26T14:07:05.980Z,63.50
2019-05-26T14:09:42.217Z,60.80
2019-05-26T14:12:18.435Z,62.50
2019-05-26T14:14:55.082Z,62.50
2019-05-26T14:17:33.311Z,62.70
2019-05-26T14:20:11.428Z,62.10
2019-05-26T14:22:47.581Z,63.30
2019-05-26T14:25:23.816Z,63.30
2019-05-26T14:28:00.071Z,62.30
2019-05-26T14:30:36.711Z,61.50
2019-05-26T14:33:13.036Z,61.90
2019-05-26T14:35:49.257Z,63.70
2019-05-26T14:38:25.515Z,63.50
2019-05-26T14:41:01.826Z,63.20
2019-05-26T14:43:38.147Z,63.70
2019-05-26T14:46:14.360Z,63.60
2019-05-26T14:48:50.612Z,61.00
2019-05-26T14:51:26.779Z,60.80
2019-05-26T14:54:03.032Z,61.30
2019-05-26T14:56:39.251Z,61.30
2019-05-26T14:59:15.497Z,61.30
2019-05-26T15:01:52.216Z,61.30
2019-05-26T15:04:31.150Z,62.90
2019-05-26T15:07:06.396Z,62.60
2019-05-26T15:09:42.535Z,62.70
2019-05-26T15:12:18.844Z,62.00
2019-05-26T15:14:54.990Z,62.00
2019-05-26T15:17:31.242Z,62.60
2019-05-26T15:22:48.531Z,63.60
2019-05-26T15:25:24.761Z,63.30
2019-05-26T15:28:01.450Z,63.60
2019-05-26T15:30:37.593Z,63.70
2019-05-26T15:33:13.771Z,63.30
2019-05-26T15:35:49.996Z,65.10
2019-05-26T15:38:40.085Z,64.70
2019-05-26T15:41:04.219Z,64.00
2019-05-26T15:43:40.460Z,62.50
2019-05-26T15:46:24.718Z,64.50
2019-05-26T15:48:54.621Z,63.60
2019-05-26T15:51:30.887Z,63.60
2019-05-26T15:54:07.217Z,64.40
2019-05-26T15:56:43.485Z,63.40
2019-05-26T15:59:19.814Z,64.20
2019-05-26T16:01:56.042Z,64.80
2019-05-26T16:04:32.209Z,65.40
2019-05-26T16:07:08.439Z,64.90
2019-05-26T16:09:44.619Z,65.00
2019-05-26T16:12:20.875Z,64.50
2019-05-26T16:14:57.121Z,64.70
2019-05-26T16:17:33.338Z,64.10
2019-05-26T16:20:10.396Z,64.50
2019-05-26T16:22:46.616Z,64.90
2019-05-26T16:25:22.904Z,64.70
2019-05-26T16:27:59.165Z,65.00
2019-05-26T16:30:35.368Z,65.00
2019-05-26T16:33:11.626Z,65.80
2019-05-26T16:35:47.872Z,65.00
2019-05-26T16:38:24.041Z,65.50
2019-05-26T16:41:00.360Z,66.80
2019-05-26T16:43:36.586Z,66.70
2019-05-26T16:46:12.836Z,66.50
2019-05-26T16:48:48.980Z,67.20
2019-05-26T16:51:25.219Z,67.40
2019-05-26T16:54:01.465Z,66.20
2019-05-26T16:56:37.732Z,65.30
2019-05-26T16:59:13.872Z,65.60
2019-05-26T17:01:50.067Z,66.50
2019-05-26T17:04:26.212Z,66.30
2019-05-26T17:07:02.524Z,66.10
2019-05-26T17:09:38.748Z,67.30
2019-05-26T17:12:15.011Z,67.80
2019-05-26T17:14:51.260Z,67.50
2019-05-26T17:17:27.467Z,67.40
2019-05-26T17:20:04.847Z,67.70
2019-05-26T17:22:41.101Z,68.70
2019-05-26T17:25:17.367Z,68.40
2019-05-26T17:27:53.608Z,68.10
2019-05-26T17:30:29.826Z,68.20
2019-05-26T17:33:06.100Z,68.70
2019-05-26T17:35:42.328Z,70.00
2019-05-26T17:38:18.573Z,70.20
2019-05-26T17:40:54.811Z,70.10
2019-05-26T17:43:31.040Z,70.40
2019-05-26T17:46:07.276Z,70.30
2019-05-26T17:48:43.635Z,70.60
2019-05-26T17:51:19.889Z,70.40
2019-05-26T17:53:56.139Z,71.10
2019-05-26T17:56:32.409Z,70.80
2019-05-26T17:59:08.653Z,71.10
2019-05-26T18:01:44.867Z,70.80
2019-05-26T18:04:21.130Z,71.40
2019-05-26T18:06:57.270Z,71.60
2019-05-26T18:09:43.671Z,71.80
2019-05-26T18:12:11.391Z,72.20
2019-05-26T18:14:47.521Z,72.40
2019-05-26T18:17:23.778Z,72.50
2019-05-26T18:20:00.092Z,72.80
2019-05-26T18:22:36.654Z,72.70
2019-05-26T18:25:13.063Z,73.00
2019-05-26T18:27:52.217Z,73.00
2019-05-26T18:30:28.474Z,73.30
2019-05-26T18:33:04.616Z,74.00
2019-05-26T18:35:40.867Z,73.60
2019-05-26T18:38:17.090Z,73.80
2019-05-26T18:40:53.417Z,73.60
2019-05-26T18:43:29.637Z,74.00
2019-05-26T18:46:05.893Z,74.20
2019-05-26T18:48:42.157Z,74.10
2019-05-26T18:51:18.450Z,74.50
2019-05-26T18:53:54.651Z,74.70
2019-05-26T18:56:30.726Z,74.70
2019-05-26T18:59:06.973Z,75.10
2019-05-26T19:01:43.170Z,75.40
2019-05-26T19:04:19.429Z,75.00
2019-05-26T19:06:55.662Z,75.30
2019-05-26T19:09:31.847Z,75.90
2019-05-26T19:12:08.144Z,75.70
2019-05-26T19:14:44.320Z,76.30
2019-05-26T19:17:20.567Z,76.30
2019-05-26T19:19:56.702Z,76.50
2019-05-26T19:22:32.970Z,76.50
2019-05-26T19:25:09.666Z,76.80
2019-05-26T19:27:45.890Z,77.30
2019-05-26T19:30:22.401Z,76.90
2019-05-26T19:32:58.668Z,76.90
2019-05-26T19:35:34.970Z,77.50
2019-05-26T19:38:11.320Z,77.30
2019-05-26T19:40:47.586Z,77.60
2019-05-26T19:43:23.840Z,78.50
2019-05-26T19:46:00.105Z,77.60
2019-05-26T19:48:37.346Z,77.40
2019-05-26T19:51:13.775Z,77.70
2019-05-26T19:53:50.020Z,77.90
2019-05-26T19:56:26.232Z,78.20
2019-05-26T19:59:02.405Z,78.30
2019-05-26T20:01:38.610Z,78.10
2019-05-26T20:04:14.831Z,78.50
2019-05-26T20:06:51.081Z,78.00
2019-05-26T20:09:27.277Z,78.40
2019-05-26T20:12:03.693Z,78.50
2019-05-26T20:14:39.947Z,79.00
2019-05-26T20:17:16.216Z,78.60
2019-05-26T20:19:52.451Z,78.90
2019-05-26T20:22:29.108Z,79.10
2019-05-26T20:25:07.682Z,79.30
2019-05-26T20:27:43.928Z,79.30
2019-05-26T20:30:22.164Z,79.20
2019-05-26T20:32:58.671Z,79.10
2019-05-26T20:35:34.912Z,79.20
2019-05-26T20:38:11.138Z,79.30
2019-05-26T20:40:47.377Z,79.40
2019-05-26T20:43:25.094Z,79.50
2019-05-26T20:46:01.448Z,79.50
2019-05-26T20:48:37.625Z,79.90
2019-05-26T20:51:13.807Z,80.10
2019-05-26T20:53:50.056Z,80.20
2019-05-26T20:56:26.279Z,80.00
2019-05-26T20:59:02.532Z,80.30
2019-05-26T21:01:38.673Z,80.60
2019-05-26T21:04:14.923Z,80.60
2019-05-26T21:06:51.141Z,81.00
2019-05-26T21:09:27.401Z,80.80
2019-05-26T21:12:03.882Z,81.30
2019-05-26T21:14:40.321Z,81.50
2019-05-26T21:17:16.533Z,81.40
2019-05-26T21:19:52.785Z,81.70
2019-05-26T21:22:29.002Z,81.80
2019-05-26T21:25:06.965Z,81.40
2019-05-26T21:27:43.170Z,81.70
2019-05-26T21:30:19.846Z,81.90
2019-05-26T21:32:56.094Z,82.10
2019-05-26T21:35:32.341Z,82.00
2019-05-26T21:38:08.556Z,81.90
2019-05-26T21:40:44.893Z,82.30
2019-05-26T21:43:21.108Z,82.50
2019-05-26T21:45:57.361Z,82.40
2019-05-26T21:48:34.802Z,82.70
2019-05-26T21:51:11.260Z,82.30
2019-05-26T21:53:47.336Z,82.70
2019-05-26T21:56:23.521Z,82.60
2019-05-26T21:58:59.769Z,82.60
2019-05-26T22:01:36.693Z,82.90
2019-05-26T22:04:12.898Z,82.70
2019-05-26T22:06:49.124Z,82.80
2019-05-26T22:09:25.363Z,82.80
2019-05-26T22:12:01.588Z,83.00
2019-05-26T22:14:37.880Z,83.00
2019-05-26T22:17:14.020Z,83.40
2019-05-26T22:19:50.263Z,83.70
2019-05-26T22:22:26.510Z,83.90
2019-05-26T22:25:02.647Z,83.40
2019-05-26T22:27:38.890Z,83.80
2019-05-26T22:30:15.404Z,84.00
2019-05-26T22:32:51.612Z,83.90
2019-05-26T22:35:27.801Z,84.30
2019-05-26T22:38:04.074Z,84.20
2019-05-26T22:40:40.287Z,84.40
2019-05-26T22:43:16.549Z,84.70
2019-05-26T22:45:52.766Z,84.50
2019-05-26T22:48:28.943Z,84.50
2019-05-26T22:51:05.124Z,84.50
2019-05-26T22:53:41.265Z,85.00
2019-05-26T22:56:17.429Z,84.60
2019-05-26T22:58:53.662Z,84.70
2019-05-26T23:01:29.910Z,84.80
2019-05-26T23:04:06.239Z,84.90
2019-05-26T23:06:42.457Z,85.00
2019-05-26T23:09:18.704Z,85.10
2019-05-26T23:11:54.859Z,84.90
2019-05-26T23:14:31.124Z,85.10
2019-05-26T23:17:07.335Z,85.10
2019-05-26T23:19:43.600Z,85.50
2019-05-26T23:22:19.776Z,85.90
2019-05-26T23:24:55.991Z,85.60
2019-05-26T23:27:32.240Z,86.00
2019-05-26T23:30:08.876Z,86.20
2019-05-26T23:32:45.066Z,86.50
2019-05-26T23:35:21.310Z,86.50
2019-05-26T23:37:57.489Z,86.30
2019-05-26T23:40:33.740Z,86.70
2019-05-26T23:43:10.008Z,86.90
2019-05-26T23:45:46.247Z,87.00
2019-05-26T23:48:22.391Z,86.90
2019-05-26T23:50:58.637Z,87.10
2019-05-26T23:53:34.722Z,87.10
2019-05-26T23:56:10.971Z,87.20
2019-05-26T23:58:47.207Z,87.30
